sensor_id;sensor_type;location;lat;lon;timestamp;pressure;altitude;pressure_sealevel;temperature;humidity
27613;BME280;15036;48.094;-1.690;2023-05-10T00:02:25;101084.03;;;17.33;52.96
27613;BME280;15036;48.094;-1.690;2023-05-10T00:04:50;101090.81;;;16.89;54.23
27613;BME280;15036;48.094;-1.690;2023-05-10T00:07:16;101090.34;;;16.74;54.21
27613;BME280;15036;48.094;-1.690;2023-05-10T00:09:43;101087.13;;;17.25;53.05
27613;BME280;15036;48.094;-1.690;2023-05-10T00:12:08;101099.44;;;16.93;53.58
27613;BME280;15036;48.094;-1.690;2023-05-10T00:14:34;101105.03;;;16.32;55.34
27613;BME280;15036;48.094;-1.690;2023-05-10T00:17:00;101102.78;;;16.40;55.70
27613;BME280;15036;48.094;-1.690;2023-05-10T00:19:26;101103.78;;;16.46;55.06
27613;BME280;15036;48.094;-1.690;2023-05-10T00:21:51;101092.66;;;16.16;55.84
27613;BME280;15036;48.094;-1.690;2023-05-10T00:24:17;101094.31;;;16.78;54.59
27613;BME280;15036;48.094;-1.690;2023-05-10T00:26:42;101093.66;;;16.04;55.64
27613;BME280;15036;48.094;-1.690;2023-05-10T00:29:07;101086.72;;;16.92;53.91
27613;BME280;15036;48.094;-1.690;2023-05-10T00:31:33;101080.09;;;16.63;54.71
27613;BME280;15036;48.094;-1.690;2023-05-10T00:33:58;101088.88;;;16.90;54.30
27613;BME280;15036;48.094;-1.690;2023-05-10T00:36:24;101086.44;;;16.45;55.48
27613;BME280;15036;48.094;-1.690;2023-05-10T00:38:49;101089.44;;;16.62;55.14
27613;BME280;15036;48.094;-1.690;2023-05-10T00:41:15;101088.69;;;16.30;55.83
27613;BME280;15036;48.094;-1.690;2023-05-10T00:43:40;101082.56;;;16.53;54.90
27613;BME280;15036;48.094;-1.690;2023-05-10T00:46:06;101090.84;;;16.46;55.48
27613;BME280;15036;48.094;-1.690;2023-05-10T00:48:31;101096.41;;;16.65;55.11
27613;BME280;15036;48.094;-1.690;2023-05-10T00:50:57;101093.44;;;16.23;55.63
27613;BME280;15036;48.094;-1.690;2023-05-10T00:53:23;101088.50;;;16.86;54.04
27613;BME280;15036;48.094;-1.690;2023-05-10T00:55:49;101095.72;;;16.51;55.07
27613;BME280;15036;48.094;-1.690;2023-05-10T00:58:15;101086.91;;;15.75;57.10
27613;BME280;15036;48.094;-1.690;2023-05-10T01:00:42;101089.16;;;16.09;56.56
27613;BME280;15036;48.094;-1.690;2023-05-10T01:03:10;101096.97;;;16.30;55.95
27613;BME280;15036;48.094;-1.690;2023-05-10T01:05:35;101099.97;;;16.47;55.35
27613;BME280;15036;48.094;-1.690;2023-05-10T01:08:00;101094.09;;;16.80;54.69
27613;BME280;15036;48.094;-1.690;2023-05-10T01:10:26;101092.66;;;16.59;55.17
27613;BME280;15036;48.094;-1.690;2023-05-10T01:12:51;101096.00;;;16.43;55.69
27613;BME280;15036;48.094;-1.690;2023-05-10T01:15:17;101086.38;;;16.52;55.64
27613;BME280;15036;48.094;-1.690;2023-05-10T01:17:44;101088.38;;;16.20;55.94
27613;BME280;15036;48.094;-1.690;2023-05-10T01:20:11;101113.69;;;16.35;56.21
27613;BME280;15036;48.094;-1.690;2023-05-10T01:33:55;101086.84;;;16.24;56.27
27613;BME280;15036;48.094;-1.690;2023-05-10T01:36:29;101080.31;;;16.01;56.47
27613;BME280;15036;48.094;-1.690;2023-05-10T01:41:59;101093.09;;;16.56;55.56
27613;BME280;15036;48.094;-1.690;2023-05-10T01:44:37;101090.78;;;16.35;55.84
27613;BME280;15036;48.094;-1.690;2023-05-10T01:47:17;101093.44;;;16.23;56.20
27613;BME280;15036;48.094;-1.690;2023-05-10T01:49:50;101084.63;;;16.15;56.57
27613;BME280;15036;48.094;-1.690;2023-05-10T01:52:18;101090.00;;;16.46;56.09
27613;BME280;15036;48.094;-1.690;2023-05-10T01:55:06;101085.28;;;16.35;56.29
27613;BME280;15036;48.094;-1.690;2023-05-10T01:57:35;101079.81;;;16.28;56.12
27613;BME280;15036;48.094;-1.690;2023-05-10T02:00:02;101080.13;;;16.02;56.69
27613;BME280;15036;48.094;-1.690;2023-05-10T02:02:37;101078.78;;;16.05;57.07
27613;BME280;15036;48.094;-1.690;2023-05-10T02:05:04;101089.13;;;16.34;56.32
27613;BME280;15036;48.094;-1.690;2023-05-10T02:07:32;101086.03;;;16.24;56.23
27613;BME280;15036;48.094;-1.690;2023-05-10T02:09:59;101087.22;;;16.53;55.80
27613;BME280;15036;48.094;-1.690;2023-05-10T02:12:26;101088.31;;;16.27;56.50
27613;BME280;15036;48.094;-1.690;2023-05-10T02:14:53;101094.44;;;16.54;55.86
27613;BME280;15036;48.094;-1.690;2023-05-10T02:17:19;101092.66;;;16.59;55.43
27613;BME280;15036;48.094;-1.690;2023-05-10T02:19:46;101096.00;;;16.43;55.75
27613;BME280;15036;48.094;-1.690;2023-05-10T02:22:13;101094.50;;;16.65;55.29
27613;BME280;15036;48.094;-1.690;2023-05-10T02:24:41;101096.16;;;16.66;55.32
27613;BME280;15036;48.094;-1.690;2023-05-10T02:27:07;101100.88;;;16.66;55.25
27613;BME280;15036;48.094;-1.690;2023-05-10T02:29:35;101110.06;;;16.60;55.22
27613;BME280;15036;48.094;-1.690;2023-05-10T02:32:02;101104.63;;;16.46;55.94
27613;BME280;15036;48.094;-1.690;2023-05-10T02:34:28;101107.16;;;16.30;56.00
27613;BME280;15036;48.094;-1.690;2023-05-10T02:36:55;101109.50;;;16.51;55.73
27613;BME280;15036;48.094;-1.690;2023-05-10T02:39:22;101101.28;;;15.77;57.88
27613;BME280;15036;48.094;-1.690;2023-05-10T02:41:49;101110.69;;;16.37;56.30
27613;BME280;15036;48.094;-1.690;2023-05-10T02:44:17;101115.09;;;16.63;55.58
27613;BME280;15036;48.094;-1.690;2023-05-10T02:46:43;101102.69;;;16.72;54.81
27613;BME280;15036;48.094;-1.690;2023-05-10T02:49:09;101109.28;;;17.18;53.93
27613;BME280;15036;48.094;-1.690;2023-05-10T02:51:37;101108.47;;;17.00;54.32
27613;BME280;15036;48.094;-1.690;2023-05-10T02:54:15;101112.75;;;16.41;55.71
27613;BME280;15036;48.094;-1.690;2023-05-10T02:56:45;101114.78;;;16.53;55.68
27613;BME280;15036;48.094;-1.690;2023-05-10T02:59:12;101120.22;;;16.77;55.20
27613;BME280;15036;48.094;-1.690;2023-05-10T03:01:37;101113.59;;;16.24;56.22
27613;BME280;15036;48.094;-1.690;2023-05-10T03:04:03;101107.72;;;15.96;57.11
27613;BME280;15036;48.094;-1.690;2023-05-10T03:06:29;101116.41;;;16.17;56.95
27613;BME280;15036;48.094;-1.690;2023-05-10T03:08:54;101112.25;;;16.51;55.94
27613;BME280;15036;48.094;-1.690;2023-05-10T03:14:08;101113.69;;;16.35;56.18
27613;BME280;15036;48.094;-1.690;2023-05-10T03:16:54;101111.72;;;16.61;55.67
27613;BME280;15036;48.094;-1.690;2023-05-10T03:19:29;101119.50;;;16.45;55.86
27613;BME280;15036;48.094;-1.690;2023-05-10T03:21:59;101118.91;;;15.76;57.59
27613;BME280;15036;48.094;-1.690;2023-05-10T03:24:27;101118.53;;;15.91;57.35
27613;BME280;15036;48.094;-1.690;2023-05-10T03:26:55;101116.06;;;16.50;55.93
27613;BME280;15036;48.094;-1.690;2023-05-10T03:29:22;101117.72;;;16.58;55.96
27613;BME280;15036;48.094;-1.690;2023-05-10T03:31:48;101119.25;;;16.29;56.46
27613;BME280;15036;48.094;-1.690;2023-05-10T03:34:13;101123.28;;;16.08;57.28
27613;BME280;15036;48.094;-1.690;2023-05-10T03:36:38;101120.06;;;16.54;55.89
27613;BME280;15036;48.094;-1.690;2023-05-10T03:39:04;101117.16;;;16.67;55.85
27613;BME280;15036;48.094;-1.690;2023-05-10T03:41:29;101120.31;;;16.71;55.53
27613;BME280;15036;48.094;-1.690;2023-05-10T03:43:55;101118.94;;;16.62;55.49
27613;BME280;15036;48.094;-1.690;2023-05-10T03:46:20;101119.38;;;16.59;55.66
27613;BME280;15036;48.094;-1.690;2023-05-10T03:48:45;101118.75;;;16.93;55.04
27613;BME280;15036;48.094;-1.690;2023-05-10T03:51:11;101118.28;;;16.78;55.25
27613;BME280;15036;48.094;-1.690;2023-05-10T03:53:36;101115.63;;;16.28;56.25
27613;BME280;15036;48.094;-1.690;2023-05-10T03:56:03;101118.81;;;16.50;56.04
27613;BME280;15036;48.094;-1.690;2023-05-10T03:58:29;101114.25;;;16.62;55.38
27613;BME280;15036;48.094;-1.690;2023-05-10T04:00:54;101121.00;;;16.23;56.37
27613;BME280;15036;48.094;-1.690;2023-05-10T04:03:20;101119.44;;;16.52;56.31
27613;BME280;15036;48.094;-1.690;2023-05-10T04:05:45;101117.66;;;16.39;56.63
27613;BME280;15036;48.094;-1.690;2023-05-10T04:08:11;101121.72;;;16.37;56.66
27613;BME280;15036;48.094;-1.690;2023-05-10T04:10:36;101110.59;;;16.25;57.03
27613;BME280;15036;48.094;-1.690;2023-05-10T04:13:01;101117.88;;;16.20;57.31
27613;BME280;15036;48.094;-1.690;2023-05-10T04:15:27;101109.94;;;16.30;57.48
27613;BME280;15036;48.094;-1.690;2023-05-10T04:17:52;101113.50;;;16.55;57.02
27613;BME280;15036;48.094;-1.690;2023-05-10T04:20:18;101112.81;;;16.60;56.41
27613;BME280;15036;48.094;-1.690;2023-05-10T04:22:44;101110.50;;;16.75;56.51
27613;BME280;15036;48.094;-1.690;2023-05-10T04:25:09;101118.28;;;16.78;56.44
27613;BME280;15036;48.094;-1.690;2023-05-10T04:27:35;101117.53;;;16.53;57.14
27613;BME280;15036;48.094;-1.690;2023-05-10T04:30:00;101112.09;;;16.64;56.64
27613;BME280;15036;48.094;-1.690;2023-05-10T04:32:26;101120.22;;;16.77;56.49
27613;BME280;15036;48.094;-1.690;2023-05-10T04:34:51;101119.00;;;16.55;57.00
27613;BME280;15036;48.094;-1.690;2023-05-10T04:37:17;101117.78;;;16.69;56.72
27613;BME280;15036;48.094;-1.690;2023-05-10T04:39:43;101112.69;;;16.84;56.62
27613;BME280;15036;48.094;-1.690;2023-05-10T04:42:08;101125.34;;;16.92;56.41
27613;BME280;15036;48.094;-1.690;2023-05-10T04:44:34;101128.06;;;17.10;56.22
27613;BME280;15036;48.094;-1.690;2023-05-10T04:47:00;101120.03;;;17.08;56.01
27613;BME280;15036;48.094;-1.690;2023-05-10T04:49:27;101122.88;;;16.84;56.87
27613;BME280;15036;48.094;-1.690;2023-05-10T04:51:53;101123.84;;;17.07;56.42
27613;BME280;15036;48.094;-1.690;2023-05-10T04:54:18;101125.91;;;17.12;55.86
27613;BME280;15036;48.094;-1.690;2023-05-10T04:56:43;101119.66;;;17.05;55.95
27613;BME280;15036;48.094;-1.690;2023-05-10T04:59:09;101133.75;;;17.15;55.87
27613;BME280;15036;48.094;-1.690;2023-05-10T05:01:34;101134.41;;;17.28;55.61
27613;BME280;15036;48.094;-1.690;2023-05-10T05:04:00;101130.25;;;17.19;55.66
27613;BME280;15036;48.094;-1.690;2023-05-10T05:06:25;101131.81;;;17.15;55.97
27613;BME280;15036;48.094;-1.690;2023-05-10T05:08:52;101131.09;;;16.90;56.63
27613;BME280;15036;48.094;-1.690;2023-05-10T05:11:17;101146.16;;;16.88;56.59
27613;BME280;15036;48.094;-1.690;2023-05-10T05:13:43;101140.44;;;16.89;56.87
27613;BME280;15036;48.094;-1.690;2023-05-10T05:16:09;101148.59;;;17.14;56.39
27613;BME280;15036;48.094;-1.690;2023-05-10T05:18:35;101145.28;;;17.23;56.23
27613;BME280;15036;48.094;-1.690;2023-05-10T05:21:00;101146.53;;;17.09;56.06
27613;BME280;15036;48.094;-1.690;2023-05-10T05:23:26;101155.56;;;17.16;56.35
27613;BME280;15036;48.094;-1.690;2023-05-10T05:25:53;101154.97;;;17.14;56.24
27613;BME280;15036;48.094;-1.690;2023-05-10T05:28:19;101149.28;;;17.09;56.17
27613;BME280;15036;48.094;-1.690;2023-05-10T05:30:45;101158.44;;;17.40;55.53
27613;BME280;15036;48.094;-1.690;2023-05-10T05:33:11;101154.34;;;17.12;55.89
27613;BME280;15036;48.094;-1.690;2023-05-10T05:35:36;101155.25;;;17.24;55.86
27613;BME280;15036;48.094;-1.690;2023-05-10T05:38:02;101152.75;;;17.23;55.99
27613;BME280;15036;48.094;-1.690;2023-05-10T05:40:27;101150.00;;;17.05;56.30
27613;BME280;15036;48.094;-1.690;2023-05-10T05:42:52;101164.13;;;17.45;55.81
27613;BME280;15036;48.094;-1.690;2023-05-10T05:45:18;101166.97;;;17.38;55.90
27613;BME280;15036;48.094;-1.690;2023-05-10T05:47:43;101166.34;;;17.36;55.92
27613;BME280;15036;48.094;-1.690;2023-05-10T05:50:09;101174.25;;;17.51;55.52
27613;BME280;15036;48.094;-1.690;2023-05-10T05:52:34;101180.91;;;17.73;55.50
27613;BME280;15036;48.094;-1.690;2023-05-10T05:55:01;101180.00;;;17.31;56.26
27613;BME280;15036;48.094;-1.690;2023-05-10T05:57:26;101181.84;;;17.37;56.28
27613;BME280;15036;48.094;-1.690;2023-05-10T05:59:51;101183.97;;;16.87;57.53
27613;BME280;15036;48.094;-1.690;2023-05-10T06:02:17;101185.50;;;17.01;57.43
27613;BME280;15036;48.094;-1.690;2023-05-10T06:04:42;101181.31;;;17.28;56.96
27613;BME280;15036;48.094;-1.690;2023-05-10T06:07:09;101180.59;;;17.51;56.37
27613;BME280;15036;48.094;-1.690;2023-05-10T06:09:34;101184.16;;;17.04;57.45
27613;BME280;15036;48.094;-1.690;2023-05-10T06:12:00;101192.13;;;17.30;57.13
27613;BME280;15036;48.094;-1.690;2023-05-10T06:14:25;101202.22;;;17.84;56.06
27613;BME280;15036;48.094;-1.690;2023-05-10T06:16:50;101192.38;;;17.88;55.65
27613;BME280;15036;48.094;-1.690;2023-05-10T06:19:16;101193.22;;;17.88;55.82
27613;BME280;15036;48.094;-1.690;2023-05-10T06:21:42;101184.97;;;17.41;56.38
27613;BME280;15036;48.094;-1.690;2023-05-10T06:24:08;101194.59;;;17.68;55.95
27613;BME280;15036;48.094;-1.690;2023-05-10T06:26:33;101196.69;;;17.54;56.23
27613;BME280;15036;48.094;-1.690;2023-05-10T06:28:58;101199.06;;;17.69;55.81
27613;BME280;15036;48.094;-1.690;2023-05-10T06:31:24;101198.00;;;17.33;56.54
27613;BME280;15036;48.094;-1.690;2023-05-10T06:33:49;101199.50;;;17.66;56.33
27613;BME280;15036;48.094;-1.690;2023-05-10T06:36:14;101185.63;;;17.24;57.23
27613;BME280;15036;48.094;-1.690;2023-05-10T06:38:41;101190.16;;;17.67;56.39
27613;BME280;15036;48.094;-1.690;2023-05-10T06:41:07;101189.75;;;17.63;56.51
27613;BME280;15036;48.094;-1.690;2023-05-10T06:43:33;101191.22;;;17.66;56.15
27613;BME280;15036;48.094;-1.690;2023-05-10T06:45:58;101190.00;;;17.62;56.72
27613;BME280;15036;48.094;-1.690;2023-05-10T06:48:23;101187.72;;;17.59;56.30
27613;BME280;15036;48.094;-1.690;2023-05-10T06:50:49;101177.91;;;17.63;56.39
27613;BME280;15036;48.094;-1.690;2023-05-10T06:53:14;101183.13;;;17.53;56.80
27613;BME280;15036;48.094;-1.690;2023-05-10T06:55:40;101190.50;;;17.59;56.68
27613;BME280;15036;48.094;-1.690;2023-05-10T06:58:06;101184.44;;;17.91;55.43
27613;BME280;15036;48.094;-1.690;2023-05-10T07:00:31;101189.06;;;18.09;55.17
27613;BME280;15036;48.094;-1.690;2023-05-10T07:02:56;101188.00;;;18.22;54.85
27613;BME280;15036;48.094;-1.690;2023-05-10T07:05:22;101194.72;;;18.26;54.53
27613;BME280;15036;48.094;-1.690;2023-05-10T07:07:47;101184.31;;;18.85;53.54
27613;BME280;15036;48.094;-1.690;2023-05-10T07:10:12;101199.75;;;19.10;52.89
27613;BME280;15036;48.094;-1.690;2023-05-10T07:12:38;101192.22;;;18.82;53.00
27613;BME280;15036;48.094;-1.690;2023-05-10T07:15:04;101193.81;;;18.55;53.43
27613;BME280;15036;48.094;-1.690;2023-05-10T07:17:30;101192.38;;;18.75;53.61
27613;BME280;15036;48.094;-1.690;2023-05-10T07:19:55;101188.03;;;18.56;53.72
27613;BME280;15036;48.094;-1.690;2023-05-10T07:22:21;101191.22;;;18.99;52.85
27613;BME280;15036;48.094;-1.690;2023-05-10T07:24:46;101190.59;;;18.58;53.96
27613;BME280;15036;48.094;-1.690;2023-05-10T07:27:11;101192.59;;;18.62;54.27
27613;BME280;15036;48.094;-1.690;2023-05-10T07:29:38;101197.16;;;18.80;53.55
27613;BME280;15036;48.094;-1.690;2023-05-10T07:32:03;101202.44;;;18.93;53.61
27613;BME280;15036;48.094;-1.690;2023-05-10T07:34:28;101196.53;;;19.52;52.10
27613;BME280;15036;48.094;-1.690;2023-05-10T07:36:56;101195.88;;;19.34;52.76
27613;BME280;15036;48.094;-1.690;2023-05-10T07:39:21;101193.44;;;19.26;52.32
27613;BME280;15036;48.094;-1.690;2023-05-10T07:41:46;101188.63;;;18.58;53.90
27613;BME280;15036;48.094;-1.690;2023-05-10T07:44:12;101195.34;;;18.39;54.57
27613;BME280;15036;48.094;-1.690;2023-05-10T07:46:37;101196.00;;;17.59;55.58
27613;BME280;15036;48.094;-1.690;2023-05-10T07:49:03;101207.34;;;18.33;54.36
27613;BME280;15036;48.094;-1.690;2023-05-10T07:51:29;101203.88;;;19.07;52.97
27613;BME280;15036;48.094;-1.690;2023-05-10T07:53:54;101203.06;;;18.83;53.63
27613;BME280;15036;48.094;-1.690;2023-05-10T07:58:48;101200.78;;;18.46;56.80
27613;BME280;15036;48.094;-1.690;2023-05-10T08:01:13;101208.16;;;17.69;59.18
27613;BME280;15036;48.094;-1.690;2023-05-10T08:03:38;101204.00;;;17.30;59.94
27613;BME280;15036;48.094;-1.690;2023-05-10T08:06:04;101205.78;;;18.37;57.85
27613;BME280;15036;48.094;-1.690;2023-05-10T08:08:29;101211.22;;;17.91;58.12
27613;BME280;15036;48.094;-1.690;2023-05-10T08:10:56;101203.31;;;17.35;59.20
27613;BME280;15036;48.094;-1.690;2023-05-10T08:13:21;101207.25;;;17.87;58.08
27613;BME280;15036;48.094;-1.690;2023-05-10T08:15:46;101199.69;;;18.58;56.53
27613;BME280;15036;48.094;-1.690;2023-05-10T08:18:12;101207.16;;;19.72;53.98
27613;BME280;15036;48.094;-1.690;2023-05-10T08:20:37;101205.09;;;19.51;53.73
27613;BME280;15036;48.094;-1.690;2023-05-10T08:23:03;101208.09;;;19.49;53.58
27613;BME280;15036;48.094;-1.690;2023-05-10T08:25:28;101204.88;;;20.14;52.25
27613;BME280;15036;48.094;-1.690;2023-05-10T08:27:53;101208.88;;;19.61;53.01
27613;BME280;15036;48.094;-1.690;2023-05-10T08:30:19;101210.53;;;18.60;54.89
27613;BME280;15036;48.094;-1.690;2023-05-10T08:32:44;101211.81;;;18.92;54.60
27613;BME280;15036;48.094;-1.690;2023-05-10T08:35:09;101204.75;;;18.61;54.99
27613;BME280;15036;48.094;-1.690;2023-05-10T08:37:35;101210.28;;;18.73;55.27
27613;BME280;15036;48.094;-1.690;2023-05-10T08:40:00;101200.94;;;19.25;53.40
27613;BME280;15036;48.094;-1.690;2023-05-10T08:42:28;101205.91;;;19.63;52.43
27613;BME280;15036;48.094;-1.690;2023-05-10T08:44:57;101212.50;;;19.90;52.15
27613;BME280;15036;48.094;-1.690;2023-05-10T08:47:22;101214.09;;;20.03;51.37
27613;BME280;15036;48.094;-1.690;2023-05-10T08:49:48;101206.09;;;20.34;50.48
27613;BME280;15036;48.094;-1.690;2023-05-10T08:52:16;101211.44;;;19.63;52.22
27613;BME280;15036;48.094;-1.690;2023-05-10T08:54:42;101206.75;;;20.25;50.90
27613;BME280;15036;48.094;-1.690;2023-05-10T08:57:08;101211.72;;;19.78;51.76
27613;BME280;15036;48.094;-1.690;2023-05-10T08:59:34;101209.19;;;18.97;53.18
27613;BME280;15036;48.094;-1.690;2023-05-10T09:02:00;101204.03;;;19.40;52.65
27613;BME280;15036;48.094;-1.690;2023-05-10T09:04:27;101222.16;;;18.96;52.86
27613;BME280;15036;48.094;-1.690;2023-05-10T09:06:54;101213.34;;;19.23;52.60
27613;BME280;15036;48.094;-1.690;2023-05-10T09:09:20;101210.19;;;20.48;50.35
27613;BME280;15036;48.094;-1.690;2023-05-10T09:11:47;101208.84;;;20.67;49.97
27613;BME280;15036;48.094;-1.690;2023-05-10T09:14:12;101221.09;;;18.51;53.99
27613;BME280;15036;48.094;-1.690;2023-05-10T09:16:39;101209.75;;;19.11;53.49
27613;BME280;15036;48.094;-1.690;2023-05-10T09:19:05;101207.97;;;19.04;53.42
27613;BME280;15036;48.094;-1.690;2023-05-10T09:21:31;101226.38;;;18.99;53.83
27613;BME280;15036;48.094;-1.690;2023-05-10T09:23:56;101221.84;;;19.44;53.20
27613;BME280;15036;48.094;-1.690;2023-05-10T09:26:23;101221.34;;;18.84;54.06
27613;BME280;15036;48.094;-1.690;2023-05-10T09:28:56;101226.16;;;19.52;53.39
27613;BME280;15036;48.094;-1.690;2023-05-10T09:31:22;101227.66;;;19.31;55.26
27613;BME280;15036;48.094;-1.690;2023-05-10T09:33:49;101217.38;;;18.69;58.41
27613;BME280;15036;48.094;-1.690;2023-05-10T09:36:15;101232.53;;;19.01;59.13
27613;BME280;15036;48.094;-1.690;2023-05-10T09:41:22;101224.41;;;19.34;58.96
27613;BME280;15036;48.094;-1.690;2023-05-10T09:43:48;101233.19;;;18.39;60.68
27613;BME280;15036;48.094;-1.690;2023-05-10T09:46:17;101225.84;;;19.14;59.83
27613;BME280;15036;48.094;-1.690;2023-05-10T09:48:45;101226.03;;;19.86;58.59
27613;BME280;15036;48.094;-1.690;2023-05-10T09:51:15;101226.50;;;19.83;58.19
27613;BME280;15036;48.094;-1.690;2023-05-10T09:53:43;101216.69;;;20.21;58.18
27613;BME280;15036;48.094;-1.690;2023-05-10T09:56:08;101225.09;;;19.30;61.01
27613;BME280;15036;48.094;-1.690;2023-05-10T09:58:36;101233.97;;;19.83;59.66
27613;BME280;15036;48.094;-1.690;2023-05-10T10:01:03;101236.03;;;20.04;59.41
27613;BME280;15036;48.094;-1.690;2023-05-10T10:03:28;101229.56;;;20.15;59.61
27613;BME280;15036;48.094;-1.690;2023-05-10T10:05:55;101222.53;;;19.51;59.85
27613;BME280;15036;48.094;-1.690;2023-05-10T10:08:21;101227.53;;;19.26;59.94
27613;BME280;15036;48.094;-1.690;2023-05-10T10:10:46;101220.53;;;19.47;59.02
27613;BME280;15036;48.094;-1.690;2023-05-10T10:13:12;101218.81;;;19.46;59.80
27613;BME280;15036;48.094;-1.690;2023-05-10T10:15:38;101215.72;;;19.42;59.17
27613;BME280;15036;48.094;-1.690;2023-05-10T10:18:04;101216.84;;;19.58;58.77
27613;BME280;15036;48.094;-1.690;2023-05-10T10:20:30;101211.44;;;20.08;57.97
27613;BME280;15036;48.094;-1.690;2023-05-10T10:22:56;101209.19;;;19.76;59.78
27613;BME280;15036;48.094;-1.690;2023-05-10T10:25:22;101196.44;;;20.20;55.57
27613;BME280;15036;48.094;-1.690;2023-05-10T10:27:49;101210.53;;;19.74;56.82
27613;BME280;15036;48.094;-1.690;2023-05-10T10:33:18;101206.94;;;19.34;58.20
27613;BME280;15036;48.094;-1.690;2023-05-10T10:35:55;101205.13;;;18.65;62.78
27613;BME280;15036;48.094;-1.690;2023-05-10T10:38:23;101209.66;;;19.45;61.01
27613;BME280;15036;48.094;-1.690;2023-05-10T10:41:02;101209.94;;;18.69;61.88
27613;BME280;15036;48.094;-1.690;2023-05-10T10:43:28;101208.09;;;18.86;62.05
27613;BME280;15036;48.094;-1.690;2023-05-10T10:48:39;101202.56;;;18.86;63.29
27613;BME280;15036;48.094;-1.690;2023-05-10T10:51:04;101209.63;;;19.05;63.29
27613;BME280;15036;48.094;-1.690;2023-05-10T10:53:29;101202.69;;;18.80;63.99
27613;BME280;15036;48.094;-1.690;2023-05-10T10:56:09;101204.22;;;19.11;62.92
27613;BME280;15036;48.094;-1.690;2023-05-10T10:58:36;101196.97;;;19.10;62.29
27613;BME280;15036;48.094;-1.690;2023-05-10T11:01:10;101184.84;;;20.23;61.55
27613;BME280;15036;48.094;-1.690;2023-05-10T11:03:36;101184.16;;;20.16;60.50
27613;BME280;15036;48.094;-1.690;2023-05-10T11:06:02;101181.63;;;20.86;60.29
27613;BME280;15036;48.094;-1.690;2023-05-10T11:08:29;101177.81;;;21.09;60.33
27613;BME280;15036;48.094;-1.690;2023-05-10T11:13:40;101171.00;;;19.95;59.69
27613;BME280;15036;48.094;-1.690;2023-05-10T11:16:22;101164.72;;;20.00;58.05
27613;BME280;15036;48.094;-1.690;2023-05-10T11:19:02;101180.44;;;19.38;60.82
27613;BME280;15036;48.094;-1.690;2023-05-10T11:21:32;101190.94;;;19.24;61.77
27613;BME280;15036;48.094;-1.690;2023-05-10T11:23:58;101213.19;;;19.41;63.33
27613;BME280;15036;48.094;-1.690;2023-05-10T11:26:25;101230.59;;;18.44;65.01
27613;BME280;15036;48.094;-1.690;2023-05-10T11:28:53;101238.81;;;17.50;66.15
27613;BME280;15036;48.094;-1.690;2023-05-10T11:31:22;101234.25;;;17.85;66.33
27613;BME280;15036;48.094;-1.690;2023-05-10T11:33:52;101230.38;;;17.08;67.68
27613;BME280;15036;48.094;-1.690;2023-05-10T11:36:23;101218.22;;;17.46;66.07
27613;BME280;15036;48.094;-1.690;2023-05-10T11:38:48;101203.81;;;17.62;63.13
27613;BME280;15036;48.094;-1.690;2023-05-10T11:41:15;101198.69;;;18.18;62.13
27613;BME280;15036;48.094;-1.690;2023-05-10T11:43:42;101194.47;;;18.27;62.53
27613;BME280;15036;48.094;-1.690;2023-05-10T11:46:10;101192.94;;;18.31;62.48
27613;BME280;15036;48.094;-1.690;2023-05-10T11:48:37;101196.94;;;18.81;61.94
27613;BME280;15036;48.094;-1.690;2023-05-10T11:51:03;101191.06;;;19.41;62.01
27613;BME280;15036;48.094;-1.690;2023-05-10T11:53:32;101182.63;;;19.64;62.08
27613;BME280;15036;48.094;-1.690;2023-05-10T11:58:30;101200.41;;;20.24;61.73
27613;BME280;15036;48.094;-1.690;2023-05-10T12:00:56;101197.59;;;19.79;61.02
27613;BME280;15036;48.094;-1.690;2023-05-10T12:03:21;101191.31;;;20.45;60.93
27613;BME280;15036;48.094;-1.690;2023-05-10T12:05:47;101199.16;;;20.04;61.50
27613;BME280;15036;48.094;-1.690;2023-05-10T12:08:19;101202.13;;;20.14;60.70
27613;BME280;15036;48.094;-1.690;2023-05-10T12:10:45;101199.94;;;19.43;62.18
27613;BME280;15036;48.094;-1.690;2023-05-10T12:13:11;101203.16;;;19.51;61.52
27613;BME280;15036;48.094;-1.690;2023-05-10T12:15:38;101208.78;;;19.17;60.96
27613;BME280;15036;48.094;-1.690;2023-05-10T12:18:03;101214.28;;;18.54;61.53
27613;BME280;15036;48.094;-1.690;2023-05-10T12:20:30;101200.28;;;18.60;62.65
27613;BME280;15036;48.094;-1.690;2023-05-10T12:22:57;101202.19;;;19.06;61.62
27613;BME280;15036;48.094;-1.690;2023-05-10T12:25:24;101205.31;;;18.98;61.05
27613;BME280;15036;48.094;-1.690;2023-05-10T12:27:57;101207.38;;;18.56;62.45
27613;BME280;15036;48.094;-1.690;2023-05-10T12:30:26;101210.28;;;18.61;62.94
27613;BME280;15036;48.094;-1.690;2023-05-10T12:32:52;101200.38;;;18.42;63.92
27613;BME280;15036;48.094;-1.690;2023-05-10T12:35:19;101214.97;;;18.49;62.70
27613;BME280;15036;48.094;-1.690;2023-05-10T12:37:47;101210.41;;;18.55;63.46
27613;BME280;15036;48.094;-1.690;2023-05-10T12:40:13;101205.38;;;18.63;63.63
27613;BME280;15036;48.094;-1.690;2023-05-10T12:42:39;101211.66;;;19.10;62.46
27613;BME280;15036;48.094;-1.690;2023-05-10T12:45:05;101203.88;;;18.84;63.14
27613;BME280;15036;48.094;-1.690;2023-05-10T12:47:32;101201.31;;;19.17;62.74
27613;BME280;15036;48.094;-1.690;2023-05-10T12:49:58;101202.53;;;19.10;63.14
27613;BME280;15036;48.094;-1.690;2023-05-10T12:52:24;101194.16;;;19.44;62.97
27613;BME280;15036;48.094;-1.690;2023-05-10T12:54:50;101195.22;;;19.55;62.65
27613;BME280;15036;48.094;-1.690;2023-05-10T12:57:15;101186.34;;;20.14;62.79
27613;BME280;15036;48.094;-1.690;2023-05-10T12:59:40;101188.59;;;20.50;61.73
27613;BME280;15036;48.094;-1.690;2023-05-10T13:02:06;101193.06;;;21.06;61.91
27613;BME280;15036;48.094;-1.690;2023-05-10T13:04:31;101179.38;;;21.43;60.85
27613;BME280;15036;48.094;-1.690;2023-05-10T13:06:57;101189.59;;;21.64;59.80
27613;BME280;15036;48.094;-1.690;2023-05-10T13:09:24;101184.81;;;21.81;59.29
27613;BME280;15036;48.094;-1.690;2023-05-10T13:11:50;101186.28;;;21.67;58.65